createdAt,value
2019-01-10T00:01:14.329Z,6.10
2019-01-10T00:03:44.057Z,5.63
2019-01-10T00:06:13.837Z,5.77
2019-01-10T00:08:43.569Z,5.27
2019-01-10T00:11:13.462Z,5.67
2019-01-10T00:13:43.252Z,6.07
2019-01-10T00:16:12.965Z,5.97
2019-01-10T00:18:42.705Z,6.20
2019-01-10T00:21:12.473Z,5.50
2019-01-10T00:23:42.154Z,5.17
2019-01-10T00:26:12.029Z,5.53
2019-01-10T00:28:41.808Z,5.30
2019-01-10T00:31:11.604Z,5.33
2019-01-10T00:33:41.383Z,5.33
2019-01-10T00:36:11.179Z,5.50
2019-01-10T00:38:41.387Z,4.87
2019-01-10T00:41:11.135Z,4.87
2019-01-10T00:43:40.938Z,4.97
2019-01-10T00:46:10.702Z,5.03
2019-01-10T00:48:40.376Z,4.80
2019-01-10T00:51:10.146Z,5.13
2019-01-10T00:53:39.887Z,5.27
2019-01-10T00:56:09.618Z,5.53
2019-01-10T00:58:39.925Z,6.00
2019-01-10T01:01:10.185Z,6.07
2019-01-10T01:03:40.006Z,6.33
2019-01-10T01:06:10.151Z,6.70
2019-01-10T01:08:40.014Z,6.97
2019-01-10T01:11:09.779Z,6.83
2019-01-10T01:13:39.931Z,7.73
2019-01-10T01:16:09.722Z,8.20
2019-01-10T01:18:39.478Z,7.20
2019-01-10T01:21:09.232Z,7.47
2019-01-10T01:23:39.032Z,7.93
2019-01-10T01:26:08.841Z,8.70
2019-01-10T01:28:38.525Z,7.50
2019-01-10T01:31:07.949Z,7.57
2019-01-10T01:33:37.726Z,7.47
2019-01-10T01:36:07.930Z,7.43
2019-01-10T01:38:37.798Z,7.90
2019-01-10T01:41:07.576Z,8.00
2019-01-10T01:43:37.431Z,7.80
2019-01-10T01:46:07.818Z,7.53
2019-01-10T01:48:37.828Z,7.93
2019-01-10T01:51:07.826Z,7.43
2019-01-10T01:53:37.849Z,8.93
2019-01-10T01:56:07.885Z,8.37
2019-01-10T01:58:37.630Z,7.03
2019-01-10T02:01:07.399Z,8.13
2019-01-10T02:03:37.132Z,7.40
2019-01-10T02:06:07.464Z,7.60
2019-01-10T02:08:37.257Z,7.40
2019-01-10T02:11:07.201Z,6.30
2019-01-10T02:13:38.308Z,7.33
2019-01-10T02:16:08.173Z,6.67
2019-01-10T02:18:37.988Z,7.67
2019-01-10T02:21:07.769Z,7.00
2019-01-10T02:23:37.568Z,7.40
2019-01-10T02:26:07.479Z,6.93
2019-01-10T02:28:37.302Z,6.67
2019-01-10T02:31:07.550Z,7.03
2019-01-10T02:33:37.304Z,7.80
2019-01-10T02:36:07.258Z,7.67
2019-01-10T02:38:36.987Z,7.30
2019-01-10T02:41:06.802Z,8.27
2019-01-10T02:43:36.549Z,6.93
2019-01-10T02:46:06.347Z,7.17
2019-01-10T02:48:36.174Z,7.93
2019-01-10T02:51:06.024Z,6.97
2019-01-10T02:53:35.797Z,7.07
2019-01-10T02:56:05.750Z,7.93
2019-01-10T02:58:35.667Z,7.87
2019-01-10T03:01:05.600Z,7.83
2019-01-10T03:03:35.357Z,8.23
2019-01-10T03:06:05.246Z,7.67
2019-01-10T03:08:35.417Z,8.07
2019-01-10T03:11:05.443Z,7.33
2019-01-10T03:13:36.791Z,7.23
2019-01-10T03:16:06.699Z,7.33
2019-01-10T03:18:36.475Z,8.07
2019-01-10T03:21:06.256Z,7.37
2019-01-10T03:23:35.987Z,6.30
2019-01-10T03:26:05.821Z,6.57
2019-01-10T03:28:35.625Z,6.40
2019-01-10T03:31:05.895Z,6.83
2019-01-10T03:33:35.638Z,6.70
2019-01-10T03:36:05.526Z,6.90
2019-01-10T03:38:35.346Z,6.77
2019-01-10T03:41:05.130Z,6.80
2019-01-10T03:43:34.945Z,6.63
2019-01-10T03:46:04.735Z,7.17
2019-01-10T03:48:34.511Z,6.27
2019-01-10T03:51:04.337Z,7.10
2019-01-10T03:53:34.079Z,6.30
2019-01-10T03:56:03.837Z,7.10
2019-01-10T03:58:33.589Z,6.50
2019-01-10T04:01:03.387Z,6.23
2019-01-10T04:03:33.617Z,6.70
2019-01-10T04:06:03.421Z,7.23
2019-01-10T04:08:33.116Z,6.70
2019-01-10T04:11:02.912Z,8.70
2019-01-10T04:13:32.644Z,6.70
2019-01-10T04:16:02.446Z,13.47
2019-01-10T04:18:32.319Z,19.87
2019-01-10T04:21:02.114Z,6.97
2019-01-10T04:23:33.114Z,8.93
2019-01-10T04:26:02.898Z,12.00
2019-01-10T04:28:32.679Z,8.67
2019-01-10T04:31:02.899Z,8.93
2019-01-10T04:33:32.549Z,8.67
2019-01-10T04:36:02.261Z,8.27
2019-01-10T04:38:31.959Z,8.50
2019-01-10T04:41:01.765Z,8.83
2019-01-10T04:43:31.530Z,9.67
2019-01-10T04:46:01.376Z,10.30
2019-01-10T04:48:31.244Z,10.20
2019-01-10T04:51:00.993Z,11.47
2019-01-10T04:53:30.735Z,9.90
2019-01-10T04:56:00.597Z,11.37
2019-01-10T04:58:30.360Z,10.97
2019-01-10T05:01:00.182Z,11.47
2019-01-10T05:03:29.985Z,11.23
2019-01-10T05:05:59.815Z,10.37
2019-01-10T05:08:29.606Z,10.50
2019-01-10T05:10:59.469Z,12.17
2019-01-10T05:13:29.189Z,10.10
2019-01-10T05:15:58.942Z,11.80
2019-01-10T05:18:30.741Z,11.00
2019-01-10T05:21:00.462Z,11.70
2019-01-10T05:23:30.222Z,11.83
2019-01-10T05:25:59.921Z,11.43
2019-01-10T05:28:29.728Z,11.57
2019-01-10T05:30:59.573Z,11.40
2019-01-10T05:33:29.438Z,12.30
2019-01-10T05:35:59.270Z,11.57
2019-01-10T05:38:29.067Z,11.33
2019-01-10T05:40:58.905Z,10.90
2019-01-10T05:43:28.755Z,12.17
2019-01-10T05:45:58.600Z,11.60
2019-01-10T05:48:28.438Z,11.37
2019-01-10T05:50:59.019Z,11.43
2019-01-10T05:53:28.825Z,12.23
2019-01-10T05:55:58.978Z,11.43
2019-01-10T05:58:28.815Z,10.77
2019-01-10T06:00:58.753Z,11.87
2019-01-10T06:03:28.553Z,11.47
2019-01-10T06:05:58.477Z,12.30
2019-01-10T06:08:28.402Z,13.40
2019-01-10T06:10:58.250Z,12.40
2019-01-10T06:13:28.116Z,12.10
2019-01-10T06:15:57.925Z,12.23
2019-01-10T06:18:27.787Z,11.87
2019-01-10T06:20:57.562Z,11.07
2019-01-10T06:23:27.411Z,12.60
2019-01-10T06:25:57.167Z,11.53
2019-01-10T06:28:26.953Z,11.63
2019-01-10T06:30:56.754Z,13.07
2019-01-10T06:33:26.499Z,12.23
2019-01-10T06:35:56.458Z,12.73
2019-01-10T06:38:26.320Z,13.80
2019-01-10T06:40:56.131Z,12.87
2019-01-10T06:43:25.940Z,12.30
2019-01-10T06:45:55.775Z,12.90
2019-01-10T06:48:25.514Z,12.70
2019-01-10T06:50:55.354Z,11.87
2019-01-10T06:53:25.090Z,12.60
2019-01-10T06:55:54.922Z,12.20
2019-01-10T06:58:24.800Z,12.97
2019-01-10T07:00:54.557Z,13.83
2019-01-10T07:03:24.399Z,14.63
2019-01-10T07:05:54.129Z,14.63
2019-01-10T07:08:24.326Z,15.20
2019-01-10T07:10:54.160Z,16.17
2019-01-10T07:13:24.075Z,33.03
2019-01-10T07:15:53.971Z,18.97
2019-01-10T07:18:23.772Z,17.27
2019-01-10T07:20:53.588Z,17.60
2019-01-10T07:23:23.388Z,17.20
2019-01-10T07:25:56.784Z,17.60
2019-01-10T07:28:29.677Z,18.00
2019-01-10T07:31:01.001Z,16.23
2019-01-10T07:33:32.223Z,17.40
2019-01-10T07:36:02.513Z,18.47
2019-01-10T07:38:32.322Z,16.00
2019-01-10T07:41:02.188Z,14.90
2019-01-10T07:43:32.011Z,23.47
2019-01-10T07:46:06.641Z,29.13
2019-01-10T07:48:36.459Z,21.07
2019-01-10T07:51:06.189Z,14.13
2019-01-10T07:53:35.927Z,15.20
2019-01-10T07:56:05.901Z,15.77
2019-01-10T07:58:35.644Z,13.87
2019-01-10T08:01:05.976Z,14.60
2019-01-10T08:03:35.706Z,14.10
2019-01-10T08:06:05.761Z,14.53
2019-01-10T08:08:35.454Z,14.70
2019-01-10T08:11:05.429Z,15.53
2019-01-10T08:13:35.138Z,15.40
2019-01-10T08:16:04.938Z,15.53
2019-01-10T08:18:34.733Z,15.40
2019-01-10T08:21:04.603Z,14.03
2019-01-10T08:23:34.486Z,15.87
2019-01-10T08:26:04.309Z,14.83
2019-01-10T08:28:34.083Z,14.93
2019-01-10T08:31:03.866Z,14.17
2019-01-10T08:33:33.698Z,15.40
2019-01-10T08:36:03.493Z,15.97
2019-01-10T08:38:33.314Z,15.43
2019-01-10T08:41:03.189Z,14.57
2019-01-10T08:43:33.032Z,15.10
2019-01-10T08:46:02.827Z,13.93
2019-01-10T08:48:32.834Z,16.40
2019-01-10T08:51:02.562Z,14.77
2019-01-10T08:53:32.289Z,14.93
2019-01-10T08:56:02.081Z,15.17
2019-01-10T08:58:31.819Z,16.17
2019-01-10T09:01:01.605Z,14.43
2019-01-10T09:03:31.385Z,12.80
2019-01-10T09:06:08.081Z,13.77
2019-01-10T09:08:32.502Z,12.83
2019-01-10T09:11:02.300Z,12.20
2019-01-10T09:13:32.136Z,14.17
2019-01-10T09:16:01.982Z,13.17
2019-01-10T09:18:31.755Z,14.00
2019-01-10T09:21:04.498Z,15.90
2019-01-10T09:23:32.967Z,15.27
2019-01-10T09:26:02.701Z,15.40
2019-01-10T09:28:32.488Z,13.97
2019-01-10T09:31:02.277Z,14.03
2019-01-10T09:33:31.977Z,14.43
2019-01-10T09:36:01.849Z,16.30
2019-01-10T09:38:33.191Z,14.83
2019-01-10T09:41:03.039Z,15.13
2019-01-10T09:43:32.773Z,14.57
2019-01-10T09:46:02.560Z,14.10
2019-01-10T09:48:32.299Z,15.43
2019-01-10T09:51:02.055Z,15.30
2019-01-10T09:53:31.785Z,14.47
2019-01-10T09:56:02.562Z,15.17
2019-01-10T09:58:32.478Z,14.73
2019-01-10T10:01:02.373Z,13.97
2019-01-10T10:03:32.163Z,14.40
2019-01-10T10:06:07.578Z,14.67
2019-01-10T10:08:33.802Z,15.77
2019-01-10T10:11:03.630Z,15.63
2019-01-10T10:13:33.383Z,15.33
2019-01-10T10:16:03.181Z,15.77
2019-01-10T10:18:32.990Z,15.87
2019-01-10T10:21:02.834Z,15.67
2019-01-10T10:23:32.640Z,15.07
2019-01-10T10:26:02.422Z,15.07
2019-01-10T10:28:32.249Z,16.50
2019-01-10T10:31:02.056Z,17.10
2019-01-10T10:33:34.038Z,15.67
2019-01-10T10:36:03.757Z,16.17
2019-01-10T10:38:33.550Z,17.27
2019-01-10T10:41:03.371Z,14.43
2019-01-10T10:43:33.193Z,14.77
2019-01-10T10:46:03.062Z,16.93
2019-01-10T10:48:32.781Z,16.30
2019-01-10T10:51:02.577Z,15.93
2019-01-10T10:53:32.378Z,17.40
2019-01-10T10:56:02.169Z,16.23
2019-01-10T10:58:31.934Z,17.03
2019-01-10T11:01:01.600Z,17.20
2019-01-10T11:03:31.321Z,16.60
2019-01-10T11:06:01.095Z,18.27
2019-01-10T11:08:30.910Z,17.43
2019-01-10T11:11:00.893Z,22.43
2019-01-10T11:13:30.675Z,17.97
2019-01-10T11:16:00.423Z,20.40
2019-01-10T11:18:30.262Z,16.20
2019-01-10T11:21:00.047Z,15.23
2019-01-10T11:23:29.850Z,16.47
2019-01-10T11:25:59.700Z,16.47
2019-01-10T11:28:30.223Z,16.07
2019-01-10T11:30:59.946Z,16.97
2019-01-10T11:33:29.734Z,16.13
2019-01-10T11:35:59.509Z,17.07
2019-01-10T11:38:29.304Z,17.10
2019-01-10T11:41:00.024Z,15.87
2019-01-10T11:43:29.774Z,14.73
2019-01-10T11:45:59.620Z,15.70
2019-01-10T11:48:29.410Z,16.03
2019-01-10T11:50:59.137Z,16.20
2019-01-10T11:53:35.409Z,17.87
2019-01-10T11:56:00.455Z,17.40
2019-01-10T11:58:30.166Z,17.47
2019-01-10T12:01:00.034Z,16.40
2019-01-10T12:03:29.840Z,16.50
2019-01-10T12:05:59.603Z,15.90
2019-01-10T12:08:29.302Z,15.80
2019-01-10T12:10:59.072Z,16.13
2019-01-10T12:13:28.831Z,16.83
2019-01-10T12:15:58.527Z,16.00
2019-01-10T12:18:28.370Z,16.47
2019-01-10T12:20:58.052Z,16.57
2019-01-10T12:23:27.837Z,16.17
2019-01-10T12:25:57.632Z,16.53
2019-01-10T12:28:27.515Z,15.97
2019-01-10T12:30:57.312Z,14.13
2019-01-10T12:33:27.138Z,15.10
2019-01-10T12:35:56.913Z,17.20
2019-01-10T12:38:26.726Z,16.87
2019-01-10T12:40:56.528Z,15.57
2019-01-10T12:43:26.427Z,14.53
2019-01-10T12:45:56.250Z,16.23
2019-01-10T12:48:26.045Z,15.87
2019-01-10T12:50:55.769Z,16.00
2019-01-10T12:53:25.486Z,15.03
2019-01-10T12:55:55.307Z,16.73
2019-01-10T12:58:25.086Z,15.33
2019-01-10T13:00:54.814Z,14.73
2019-01-10T13:03:24.685Z,17.23
2019-01-10T13:05:54.475Z,15.70
2019-01-10T13:08:24.351Z,15.50
2019-01-10T13:10:54.189Z,16.30
2019-01-10T13:13:24.105Z,16.13
2019-01-10T13:15:53.894Z,15.73
2019-01-10T13:18:23.716Z,17.10
2019-01-10T13:20:54.498Z,17.30
2019-01-10T13:23:24.267Z,17.57
2019-01-10T13:25:59.509Z,15.73
2019-01-10T13:28:25.530Z,16.50
2019-01-10T13:30:55.229Z,15.87
2019-01-10T13:33:25.023Z,15.93
2019-01-10T13:35:54.842Z,14.97
2019-01-10T13:38:24.689Z,14.90
2019-01-10T13:40:54.442Z,14.30
2019-01-10T13:43:24.383Z,13.37
2019-01-10T13:45:55.453Z,17.97
2019-01-10T13:48:25.706Z,14.77
2019-01-10T13:50:55.401Z,14.20
2019-01-10T13:53:25.280Z,13.13
2019-01-10T13:55:55.004Z,13.77
2019-01-10T13:58:24.881Z,12.37
2019-01-10T14:00:54.724Z,13.43
2019-01-10T14:03:24.727Z,12.63
2019-01-10T14:05:54.536Z,12.00
2019-01-10T14:08:24.285Z,12.30
2019-01-10T14:10:54.198Z,11.53
2019-01-10T14:13:23.983Z,15.10
2019-01-10T14:15:53.826Z,12.40
2019-01-10T14:18:23.812Z,11.53
2019-01-10T14:20:53.645Z,11.23
2019-01-10T14:23:23.658Z,11.63
2019-01-10T14:25:53.485Z,11.47
2019-01-10T14:28:23.235Z,11.87
2019-01-10T14:30:53.130Z,11.70
2019-01-10T14:33:22.994Z,11.50
2019-01-10T14:35:52.802Z,12.87
2019-01-10T14:38:22.601Z,12.37
2019-01-10T14:40:52.471Z,11.10
2019-01-10T14:43:22.415Z,12.33
2019-01-10T14:45:52.231Z,15.93
2019-01-10T14:48:21.994Z,12.60
2019-01-10T14:50:51.836Z,11.93
2019-01-10T14:53:21.720Z,13.23
2019-01-10T14:55:51.482Z,13.67
2019-01-10T14:58:21.361Z,13.17
2019-01-10T15:00:52.454Z,11.87
2019-01-10T15:03:22.313Z,14.97
2019-01-10T15:05:52.060Z,12.13
2019-01-10T15:08:21.843Z,11.60
2019-01-10T15:10:51.639Z,11.57
2019-01-10T15:13:21.486Z,12.27
2019-01-10T15:15:51.331Z,13.07
2019-01-10T15:18:21.075Z,13.00
2019-01-10T15:20:50.834Z,9.97
2019-01-10T15:23:20.616Z,12.33
2019-01-10T15:25:50.260Z,11.97
2019-01-10T15:28:20.057Z,12.83
2019-01-10T15:30:51.032Z,11.93
2019-01-10T15:33:20.845Z,11.93
2019-01-10T15:35:50.699Z,12.03
2019-01-10T15:38:20.509Z,11.63
2019-01-10T15:40:50.326Z,11.10
2019-01-10T15:43:20.210Z,12.30
2019-01-10T15:45:49.982Z,11.60
2019-01-10T15:48:19.814Z,12.67
2019-01-10T15:50:49.604Z,12.03
2019-01-10T15:53:19.518Z,10.90
2019-01-10T15:55:49.276Z,11.07
2019-01-10T15:58:19.021Z,13.70
2019-01-10T16:00:48.886Z,12.43
2019-01-10T16:03:18.620Z,11.50
2019-01-10T16:05:48.446Z,12.20
2019-01-10T16:08:18.277Z,12.00
2019-01-10T16:10:47.958Z,12.37
2019-01-10T16:13:17.790Z,12.43
2019-01-10T16:15:47.662Z,12.03
2019-01-10T16:18:17.524Z,11.77
2019-01-10T16:20:47.419Z,12.30
2019-01-10T16:23:17.224Z,11.67
2019-01-10T16:25:47.103Z,11.43
2019-01-10T16:28:18.252Z,11.27
2019-01-10T16:30:48.082Z,11.77
2019-01-10T16:33:17.882Z,12.07
2019-01-10T16:35:47.657Z,12.03
2019-01-10T16:38:17.343Z,12.17
2019-01-10T16:40:47.163Z,11.83
2019-01-10T16:43:16.960Z,12.17
2019-01-10T16:45:46.855Z,9.73
2019-01-10T16:48:16.626Z,11.07
2019-01-10T16:50:46.393Z,12.63
2019-01-10T16:53:16.138Z,11.13
2019-01-10T16:55:45.916Z,9.90
2019-01-10T16:58:15.699Z,14.13
2019-01-10T17:00:45.526Z,11.13
2019-01-10T17:03:15.290Z,11.97
2019-01-10T17:05:45.132Z,10.43
2019-01-10T17:08:14.900Z,10.63
2019-01-10T17:10:44.724Z,9.40
2019-01-10T17:13:14.624Z,9.87
2019-01-10T17:15:44.421Z,9.70
2019-01-10T17:18:14.165Z,10.83
2019-01-10T17:20:43.835Z,10.40
2019-01-10T17:23:13.557Z,10.23
2019-01-10T17:25:43.349Z,9.00
2019-01-10T17:28:13.054Z,9.60
2019-01-10T17:30:42.778Z,10.33
2019-01-10T17:33:12.710Z,25.17
2019-01-10T17:35:42.567Z,9.60
2019-01-10T17:38:12.298Z,11.57
2019-01-10T17:40:42.151Z,11.07
2019-01-10T17:43:12.239Z,10.60
2019-01-10T17:45:42.234Z,9.47
2019-01-10T17:48:12.514Z,9.00
2019-01-10T17:50:42.261Z,9.47
2019-01-10T17:53:12.075Z,9.10
2019-01-10T17:55:41.909Z,14.07
2019-01-10T17:58:11.633Z,13.20
2019-01-10T18:00:41.445Z,10.93
2019-01-10T18:03:11.187Z,10.67
2019-01-10T18:05:40.882Z,11.23
2019-01-10T18:08:10.622Z,10.93
2019-01-10T18:10:40.482Z,10.10
2019-01-10T18:13:10.237Z,11.27
2019-01-10T18:15:39.941Z,9.10
2019-01-10T18:18:09.813Z,10.23
2019-01-10T18:20:41.117Z,9.87
2019-01-10T18:23:12.019Z,10.80
2019-01-10T18:25:41.841Z,10.57
2019-01-10T18:28:13.601Z,9.23
2019-01-10T18:30:43.686Z,10.50
2019-01-10T18:33:13.519Z,10.53
2019-01-10T18:35:43.224Z,9.50
2019-01-10T18:38:12.986Z,10.00
2019-01-10T18:40:42.807Z,10.87
2019-01-10T18:43:12.605Z,10.30
2019-01-10T18:45:42.901Z,9.57
2019-01-10T18:48:12.650Z,9.43
2019-01-10T18:50:42.444Z,12.60
2019-01-10T18:53:12.243Z,9.83
2019-01-10T18:55:41.986Z,9.73
2019-01-10T18:58:11.695Z,8.93
2019-01-10T19:00:41.426Z,11.17
2019-01-10T19:03:11.146Z,11.13
2019-01-10T19:05:40.969Z,9.30
2019-01-10T19:08:10.771Z,10.43
2019-01-10T19:10:40.478Z,8.73
2019-01-10T19:13:10.326Z,9.30
2019-01-10T19:15:40.078Z,9.27
2019-01-10T19:18:09.787Z,8.93
2019-01-10T19:20:39.491Z,18.10
2019-01-10T19:23:09.285Z,14.27
2019-01-10T19:25:41.563Z,8.93
2019-01-10T19:28:11.366Z,9.63
2019-01-10T19:30:41.585Z,12.03
2019-01-10T19:33:11.409Z,11.40
2019-01-10T19:35:41.182Z,9.83
2019-01-10T19:38:11.183Z,9.73
2019-01-10T19:40:40.945Z,9.50
2019-01-10T19:43:10.691Z,8.03
2019-01-10T19:45:40.529Z,9.57
2019-01-10T19:48:10.445Z,9.47
2019-01-10T19:50:40.170Z,9.60
2019-01-10T19:53:09.933Z,9.17
2019-01-10T19:55:39.611Z,9.00
2019-01-10T19:58:09.479Z,9.50
2019-01-10T20:00:44.995Z,10.87
2019-01-10T20:03:14.757Z,9.00
2019-01-10T20:05:44.477Z,10.20
2019-01-10T20:08:14.285Z,10.60
2019-01-10T20:10:44.183Z,9.30
2019-01-10T20:13:13.926Z,8.83
2019-01-10T20:15:43.729Z,8.60
2019-01-10T20:18:16.423Z,9.53
2019-01-10T20:20:44.809Z,9.57
2019-01-10T20:23:17.333Z,8.60
2019-01-10T20:25:47.064Z,8.27
2019-01-10T20:28:16.768Z,8.47
2019-01-10T20:30:46.605Z,7.60
2019-01-10T20:33:16.382Z,8.53
2019-01-10T20:35:46.105Z,8.30
2019-01-10T20:38:15.878Z,9.60
2019-01-10T20:40:46.733Z,7.83
2019-01-10T20:43:16.721Z,8.57
2019-01-10T20:45:46.495Z,7.67
2019-01-10T20:48:22.173Z,7.97
2019-01-10T20:50:48.036Z,7.57
2019-01-10T20:53:17.744Z,7.27
2019-01-10T20:55:47.462Z,6.47
2019-01-10T20:58:17.671Z,7.53
2019-01-10T21:00:47.512Z,8.13
2019-01-10T21:03:17.324Z,6.90
2019-01-10T21:05:48.732Z,8.90
2019-01-10T21:08:21.571Z,7.20
2019-01-10T21:10:51.979Z,6.87
2019-01-10T21:13:21.777Z,7.67
2019-01-10T21:15:53.184Z,6.83
2019-01-10T21:18:28.814Z,8.27
2019-01-10T21:20:56.204Z,8.77
2019-01-10T21:23:26.198Z,9.10
2019-01-10T21:25:56.071Z,13.57
2019-01-10T21:28:25.969Z,9.83
2019-01-10T21:30:55.689Z,8.57
2019-01-10T21:33:25.426Z,8.93
2019-01-10T21:35:55.127Z,8.77
2019-01-10T21:38:24.892Z,8.70
2019-01-10T21:40:54.718Z,12.27
2019-01-10T21:43:24.447Z,10.00
2019-01-10T21:45:54.255Z,9.87
2019-01-10T21:48:27.019Z,8.00
2019-01-10T21:50:56.939Z,8.27
2019-01-10T21:53:27.272Z,7.07
2019-01-10T21:55:57.148Z,7.87
2019-01-10T21:58:31.220Z,8.43
2019-01-10T22:01:01.385Z,7.90
2019-01-10T22:03:31.393Z,7.50
2019-01-10T22:06:01.136Z,7.10
2019-01-10T22:08:30.996Z,7.70
2019-01-10T22:11:02.155Z,6.83
2019-01-10T22:13:32.233Z,7.13
2019-01-10T22:16:02.148Z,6.80
2019-01-10T22:18:31.989Z,5.63
2019-01-10T22:21:02.716Z,6.30
2019-01-10T22:23:32.369Z,5.33
2019-01-10T22:26:04.970Z,6.63
2019-01-10T22:28:34.774Z,5.87
2019-01-10T22:31:07.422Z,5.43
2019-01-10T22:33:37.849Z,6.00
2019-01-10T22:36:07.586Z,6.00
2019-01-10T22:38:37.635Z,5.50
2019-01-10T22:41:07.339Z,6.37
2019-01-10T22:43:37.189Z,5.07
2019-01-10T22:46:06.880Z,4.63
2019-01-10T22:48:36.521Z,4.80
2019-01-10T22:51:06.253Z,4.67
2019-01-10T22:53:35.968Z,3.83
2019-01-10T22:56:06.069Z,3.63
2019-01-10T22:58:35.856Z,4.20
2019-01-10T23:01:41.727Z,4.30
2019-01-10T23:04:20.371Z,4.67
2019-01-10T23:06:55.101Z,4.03
2019-01-10T23:09:24.861Z,3.07
2019-01-10T23:11:54.804Z,3.67
2019-01-10T23:14:27.016Z,3.50
2019-01-10T23:16:57.949Z,3.10
2019-01-10T23:19:27.863Z,3.27
2019-01-10T23:22:01.058Z,3.17
2019-01-10T23:24:30.869Z,3.03
2019-01-10T23:27:00.706Z,3.20
2019-01-10T23:29:33.632Z,2.87
2019-01-10T23:32:12.418Z,3.17
2019-01-10T23:34:51.474Z,2.70
2019-01-10T23:37:28.105Z,3.10
2019-01-10T23:39:58.343Z,2.80
2019-01-10T23:42:28.282Z,2.80
2019-01-10T23:44:58.559Z,3.07
2019-01-10T23:47:28.430Z,3.13
2019-01-10T23:49:58.639Z,3.40
2019-01-10T23:52:28.521Z,3.43
2019-01-10T23:54:58.374Z,2.90
2019-01-10T23:57:28.226Z,3.73
2019-01-10T23:59:58.069Z,3.57
